Portada
METAR-TAF:

METAR-TAF

Aeropuertos :

Aeropuerto Internacional de La Habana

La Habana, Cuba

latitud: 22-59N, longitud: 082-24W, altitud: 59 m

Observación

El informe se hizo hace 28 minutos, a las 05:55 UTC
Viento 3 kt del suroeste
Temperatura 22°C
Humedad 100%
Presión 1016 hPa
Visibilidad: 9000 m

METAR: MUHA 220555Z 23003KT 9000 NSC 22/22 Q1016

Hora: 02:23 (06:23 UTC)

Pronóstico

El informe se hizo hace 1 hora y 23 minutos, a las 05:00 UTC
Pronóstico válido del 22 a las 06 UTC al 23 a las 06 UTC
Viento 3 kt con dirección variable
Visibilidad: 9000 m
Escasas nubes a una altura de 3000 ft
Evolucionando progresivamente
del 22 a las 18 UTC al 22 a las 20 UTC
Viento 8 kt del norte
Nubes dispersas a una altura de 4000 ft
Evolucionando progresivamente
del 23 a las 02 UTC al 23 a las 04 UTC
Viento 3 kt con dirección variable

TAF: MUHA 220500Z 2206/2306 VRB03KT 9000 FEW030 BECMG 2218/2220 36008KT SCT040 BECMG 2302/2304 VRB03KT

Observaciones y pronósticos meteorológicos de más de 4000 aeropuertos (mensajes METAR y TAF).

Los puntos amarillos y rojos representan las estaciones disponibles.

Ponga el ratón en el punto deseado para ver el nombre de la estación.

Haga clic para ver las observaciones y los pronósticos meteorológicos.

Para cambiar el mapa : haga clic en los botones verdes con una cruz de color negro para hacer un zoom, en el botón verde con un guión para alejar o en las flechas verdes para mapas adyacentes.


METAR-TAF: